Enetai, Washington
Current Conditions -  °F | °C
As of 3:55 AM on Tuesday 21 Oct 2014 (Local Time) from KPWT Reporting Station
Overcast Overcast  
Wind Chill: 54°   Ceiling: 1300
Heat Index: 54°   Visibility: 10mi
Dew Point: 52°   Wind: 10mph
Humidity: 94%   Direction: 180°S
Pressure: 29.85"   Gusts: NA
Location:  47.5691°N, 122.818°W
Report Text: KPWT 211055Z AUTO 18009KT 10SM SCT007 BKN013 OVC029 12/11 A2985 RMK AO1 P0002
Loading
Personal Weather Stations






























Interactive Weather Map
Tropical Storm Tracking
New forecast layout! Learn more

10-Day Weather Forecast

Advertisements
Track Severe Weather on mobile